createdAt,value
2018-03-28T00:00:11.840Z,0.00
2018-03-28T00:01:11.791Z,0.00
2018-03-28T00:02:11.744Z,0.00
2018-03-28T00:03:11.699Z,0.00
2018-03-28T00:04:11.657Z,0.00
2018-03-28T00:05:11.908Z,0.00
2018-03-28T00:06:11.562Z,0.00
2018-03-28T00:07:11.517Z,0.00
2018-03-28T00:08:11.474Z,0.00
2018-03-28T00:09:11.477Z,0.00
2018-03-28T00:10:11.381Z,0.00
2018-03-28T00:11:11.642Z,0.00
2018-03-28T00:12:11.292Z,0.00
2018-03-28T00:13:11.244Z,0.00
2018-03-28T00:14:11.198Z,0.00
2018-03-28T00:15:11.154Z,0.00
2018-03-28T00:16:11.110Z,0.00
2018-03-28T00:17:11.461Z,0.00
2018-03-28T00:18:11.017Z,0.00
2018-03-28T00:19:10.976Z,0.00
2018-03-28T00:20:10.924Z,0.00
2018-03-28T00:21:10.882Z,0.00
2018-03-28T00:22:10.836Z,0.00
2018-03-28T00:23:10.842Z,0.00
2018-03-28T00:24:11.045Z,0.00
2018-03-28T00:25:10.698Z,0.00
2018-03-28T00:26:10.653Z,0.00
2018-03-28T00:27:10.607Z,0.00
2018-03-28T00:28:10.565Z,0.00
2018-03-28T00:29:10.519Z,0.00
2018-03-28T00:30:10.473Z,0.00
2018-03-28T00:31:10.727Z,0.00
2018-03-28T00:32:10.379Z,0.00
2018-03-28T00:33:10.335Z,0.00
2018-03-28T00:34:10.289Z,0.00
2018-03-28T00:35:10.248Z,0.00
2018-03-28T00:36:10.198Z,0.00
2018-03-28T00:37:10.154Z,0.00
2018-03-28T00:38:10.415Z,0.00
2018-03-28T00:39:10.064Z,0.00
2018-03-28T00:40:10.015Z,0.00
2018-03-28T00:41:09.973Z,0.00
2018-03-28T00:42:09.930Z,0.00
2018-03-28T00:43:09.879Z,0.00
2018-03-28T00:44:09.834Z,0.00
2018-03-28T00:45:10.089Z,0.00
2018-03-28T00:46:09.744Z,0.00
2018-03-28T00:47:09.704Z,0.00
2018-03-28T00:48:09.655Z,0.00
2018-03-28T00:49:09.660Z,0.00
2018-03-28T00:50:09.566Z,0.00
2018-03-28T00:51:09.520Z,0.00
2018-03-28T00:52:09.779Z,0.00
2018-03-28T00:53:09.429Z,0.00
2018-03-28T00:54:09.379Z,0.00
2018-03-28T00:55:09.386Z,0.00
2018-03-28T00:56:09.291Z,0.00
2018-03-28T00:57:09.243Z,0.00
2018-03-28T00:58:09.505Z,0.00
2018-03-28T00:59:09.153Z,0.00
2018-03-28T01:00:09.112Z,0.00
2018-03-28T01:01:09.114Z,0.00
2018-03-28T01:02:09.018Z,0.00
2018-03-28T01:03:08.972Z,0.00
2018-03-28T01:04:09.260Z,0.00
2018-03-28T01:05:08.880Z,0.00
2018-03-28T01:06:08.835Z,0.00
2018-03-28T01:07:08.795Z,0.00
2018-03-28T01:08:08.743Z,0.00
2018-03-28T01:09:08.704Z,0.00
2018-03-28T01:10:08.957Z,0.00
2018-03-28T01:11:08.638Z,0.00
2018-03-28T01:12:08.631Z,0.00
2018-03-28T01:13:08.536Z,0.00
2018-03-28T01:14:08.497Z,0.00
2018-03-28T01:15:08.445Z,0.00
2018-03-28T01:16:08.702Z,0.00
2018-03-28T01:17:08.359Z,0.00
2018-03-28T01:18:08.510Z,0.00
2018-03-28T01:19:08.296Z,0.00
2018-03-28T01:20:08.229Z,0.00
2018-03-28T01:21:08.165Z,0.00
2018-03-28T01:22:08.442Z,0.00
2018-03-28T01:23:08.079Z,0.00
2018-03-28T01:24:08.078Z,0.00
2018-03-28T01:25:07.984Z,0.00
2018-03-28T01:26:07.942Z,0.00
2018-03-28T01:27:07.895Z,0.00
2018-03-28T01:28:08.139Z,0.00
2018-03-28T01:29:07.793Z,0.00
2018-03-28T01:30:07.747Z,0.00
2018-03-28T01:31:07.704Z,0.00
2018-03-28T01:32:07.665Z,0.00
2018-03-28T01:33:07.613Z,0.00
2018-03-28T01:34:07.570Z,0.00
2018-03-28T01:35:07.827Z,0.00
2018-03-28T01:36:07.481Z,0.00
2018-03-28T01:37:07.448Z,0.00
2018-03-28T01:38:07.387Z,0.00
2018-03-28T01:39:07.347Z,0.00
2018-03-28T01:40:07.295Z,0.00
2018-03-28T01:41:07.250Z,0.00
2018-03-28T01:42:07.506Z,0.00
2018-03-28T01:43:07.160Z,0.00
2018-03-28T01:44:07.124Z,0.00
2018-03-28T01:45:07.134Z,0.00
2018-03-28T01:46:07.036Z,0.00
2018-03-28T01:47:06.986Z,0.00
2018-03-28T01:48:06.936Z,0.00
2018-03-28T01:49:07.187Z,0.00
2018-03-28T01:50:06.844Z,0.00
2018-03-28T01:51:06.948Z,0.00
2018-03-28T01:52:06.760Z,0.00
2018-03-28T01:53:06.728Z,0.00
2018-03-28T01:54:06.683Z,0.00
2018-03-28T01:55:06.638Z,0.00
2018-03-28T01:56:06.895Z,0.00
2018-03-28T01:57:06.598Z,0.00
2018-03-28T01:58:06.502Z,0.00
2018-03-28T01:59:06.456Z,0.00
2018-03-28T02:00:06.420Z,0.00
2018-03-28T02:01:06.377Z,0.00
2018-03-28T02:02:06.331Z,0.00
2018-03-28T02:03:06.565Z,0.00
2018-03-28T02:04:06.220Z,0.00
2018-03-28T02:05:06.174Z,0.00
2018-03-28T02:06:06.136Z,0.00
2018-03-28T02:07:06.085Z,0.00
2018-03-28T02:08:06.039Z,0.00
2018-03-28T02:09:06.295Z,0.00
2018-03-28T02:10:05.949Z,0.00
2018-03-28T02:11:05.906Z,0.00
2018-03-28T02:12:05.911Z,0.00
2018-03-28T02:13:05.815Z,0.00
2018-03-28T02:14:05.767Z,0.00
2018-03-28T02:15:06.022Z,0.00
2018-03-28T02:16:05.670Z,0.00
2018-03-28T02:17:05.622Z,0.00
2018-03-28T02:18:05.577Z,0.00
2018-03-28T02:19:05.530Z,0.00
2018-03-28T02:20:05.491Z,0.00
2018-03-28T02:21:05.739Z,0.00
2018-03-28T02:22:05.396Z,0.00
2018-03-28T02:23:05.351Z,0.00
2018-03-28T02:24:05.321Z,0.00
2018-03-28T02:25:05.261Z,0.00
2018-03-28T02:26:05.215Z,0.00
2018-03-28T02:27:05.477Z,0.00
2018-03-28T02:28:05.174Z,0.00
2018-03-28T02:29:05.079Z,0.00
2018-03-28T02:30:05.038Z,0.00
2018-03-28T02:31:04.989Z,0.00
2018-03-28T02:32:04.942Z,0.00
2018-03-28T02:33:05.199Z,0.00
2018-03-28T02:34:04.929Z,0.00
2018-03-28T02:35:04.828Z,0.00
2018-03-28T02:36:04.783Z,0.00
2018-03-28T02:37:04.739Z,0.00
2018-03-28T02:38:04.694Z,0.00
2018-03-28T02:39:04.948Z,0.00
2018-03-28T02:40:04.655Z,0.00
2018-03-28T02:41:04.572Z,0.00
2018-03-28T02:42:04.515Z,0.00
2018-03-28T02:43:04.451Z,0.00
2018-03-28T02:44:04.405Z,0.00
2018-03-28T02:45:04.356Z,0.00
2018-03-28T02:46:04.615Z,0.00
2018-03-28T02:47:04.276Z,0.00
2018-03-28T02:48:04.230Z,0.00
2018-03-28T02:49:04.186Z,0.00
2018-03-28T02:50:04.144Z,0.00
2018-03-28T02:51:04.248Z,0.00
2018-03-28T02:52:04.054Z,0.00
2018-03-28T02:53:04.307Z,0.00
2018-03-28T02:54:03.963Z,0.00
2018-03-28T02:55:03.917Z,0.00
2018-03-28T02:56:03.862Z,0.00
2018-03-28T02:57:04.118Z,0.00
2018-03-28T02:58:03.773Z,0.00
2018-03-28T02:59:03.728Z,0.00
2018-03-28T03:00:03.983Z,0.00
2018-03-28T03:01:03.648Z,0.00
2018-03-28T03:02:03.643Z,0.00
2018-03-28T03:03:03.574Z,0.00
2018-03-28T03:04:03.513Z,0.00
2018-03-28T03:05:03.469Z,0.00
2018-03-28T03:06:03.422Z,0.00
2018-03-28T03:07:03.677Z,0.00
2018-03-28T03:08:03.381Z,0.00
2018-03-28T03:09:03.290Z,0.00
2018-03-28T03:10:03.241Z,0.00
2018-03-28T03:11:03.197Z,0.00
2018-03-28T03:12:03.150Z,0.00
2018-03-28T03:13:03.107Z,0.00
2018-03-28T03:14:03.611Z,0.00
2018-03-28T03:15:03.019Z,0.00
2018-03-28T03:16:02.981Z,0.00
2018-03-28T03:17:02.926Z,0.00
2018-03-28T03:18:02.885Z,0.00
2018-03-28T03:19:02.835Z,0.00
2018-03-28T03:20:02.830Z,0.00
2018-03-28T03:21:03.037Z,0.00
2018-03-28T03:22:02.691Z,0.00
2018-03-28T03:23:02.650Z,0.00
2018-03-28T03:24:02.604Z,0.00
2018-03-28T03:25:02.567Z,0.00
2018-03-28T03:26:02.515Z,0.00
2018-03-28T03:27:02.771Z,0.00
2018-03-28T03:28:02.432Z,0.00
2018-03-28T03:29:02.388Z,0.00
2018-03-28T03:30:02.341Z,0.00
2018-03-28T03:31:02.300Z,0.00
2018-03-28T03:32:02.272Z,0.00
2018-03-28T03:33:02.514Z,0.00
2018-03-28T03:34:02.163Z,0.00
2018-03-28T03:35:02.116Z,0.00
2018-03-28T03:36:02.214Z,0.00
2018-03-28T03:37:02.078Z,0.00
2018-03-28T03:38:01.972Z,0.00
2018-03-28T03:39:02.227Z,0.00
2018-03-28T03:40:01.900Z,0.00
2018-03-28T03:41:01.841Z,0.00
2018-03-28T03:42:01.843Z,0.00
2018-03-28T03:43:01.746Z,0.00
2018-03-28T03:44:01.701Z,0.00
2018-03-28T03:45:01.966Z,0.00
2018-03-28T03:46:01.621Z,0.00
2018-03-28T03:47:01.599Z,0.00
2018-03-28T03:48:01.618Z,0.00
2018-03-28T03:49:01.481Z,0.00
2018-03-28T03:50:01.431Z,0.00
2018-03-28T03:51:01.387Z,0.00
2018-03-28T03:52:01.652Z,0.00
2018-03-28T03:53:01.360Z,0.00
2018-03-28T03:54:01.267Z,0.00
2018-03-28T03:55:01.225Z,0.00
2018-03-28T03:56:01.177Z,0.00
2018-03-28T03:57:01.127Z,0.00
2018-03-28T03:58:01.083Z,0.00
2018-03-28T03:59:01.342Z,0.00
2018-03-28T04:00:00.988Z,0.00
2018-03-28T04:01:00.939Z,0.00
2018-03-28T04:02:00.895Z,0.00
2018-03-28T04:03:00.847Z,0.00
2018-03-28T04:04:01.102Z,0.00
2018-03-28T04:05:00.762Z,0.00
2018-03-28T04:06:01.017Z,0.00
2018-03-28T04:07:00.667Z,0.00
2018-03-28T04:08:00.635Z,0.00
2018-03-28T04:09:00.599Z,0.00
2018-03-28T04:10:00.593Z,0.00
2018-03-28T04:11:00.499Z,0.00
2018-03-28T04:12:00.453Z,0.00
2018-03-28T04:13:00.708Z,0.00
2018-03-28T04:14:00.364Z,0.00
2018-03-28T04:15:00.327Z,0.00
2018-03-28T04:16:00.275Z,0.00
2018-03-28T04:17:00.229Z,0.00
2018-03-28T04:18:00.182Z,0.00
2018-03-28T04:19:00.140Z,0.00
2018-03-28T04:20:00.400Z,0.00
2018-03-28T04:21:00.057Z,0.00
2018-03-28T04:22:00.013Z,0.00
2018-03-28T04:22:59.959Z,0.00
2018-03-28T04:23:59.907Z,0.00
2018-03-28T04:24:59.857Z,0.00
2018-03-28T04:25:59.813Z,0.00
2018-03-28T04:27:00.081Z,0.00
2018-03-28T04:27:59.724Z,0.00
2018-03-28T04:28:59.684Z,0.00
2018-03-28T04:29:59.669Z,0.00
2018-03-28T04:30:59.738Z,0.00
2018-03-28T04:31:59.554Z,0.00
2018-03-28T04:32:59.812Z,0.00
2018-03-28T04:33:59.462Z,0.00
2018-03-28T04:34:59.422Z,0.00
2018-03-28T04:35:59.373Z,0.00
2018-03-28T04:36:59.334Z,0.00
2018-03-28T04:37:59.284Z,0.00
2018-03-28T04:38:59.540Z,0.00
2018-03-28T04:39:59.182Z,0.00
2018-03-28T04:40:59.144Z,0.00
2018-03-28T04:41:59.093Z,0.00
2018-03-28T04:42:59.097Z,0.00
2018-03-28T04:43:59.006Z,0.00
2018-03-28T04:44:59.262Z,0.00
2018-03-28T04:45:58.912Z,0.00
2018-03-28T04:46:58.872Z,0.00
2018-03-28T04:47:58.822Z,0.00
2018-03-28T04:48:58.783Z,0.00
2018-03-28T04:49:58.734Z,0.00
2018-03-28T04:50:58.992Z,0.00
2018-03-28T04:51:58.642Z,0.00
2018-03-28T04:52:58.603Z,0.00
2018-03-28T04:53:58.553Z,0.00
2018-03-28T04:54:58.513Z,0.00
2018-03-28T04:55:58.473Z,0.00
2018-03-28T04:56:58.928Z,0.00
2018-03-28T04:57:58.383Z,0.00
2018-03-28T04:58:58.338Z,0.00
2018-03-28T04:59:58.291Z,0.00
2018-03-28T05:00:58.246Z,0.00
2018-03-28T05:01:58.330Z,0.00
2018-03-28T05:02:58.690Z,0.00
2018-03-28T05:03:58.408Z,0.00
2018-03-28T05:04:59.320Z,0.00
2018-03-28T05:05:58.129Z,0.00
2018-03-28T05:06:58.710Z,0.00
2018-03-28T05:07:58.253Z,0.00
2018-03-28T05:08:57.880Z,0.00
2018-03-28T05:09:57.830Z,0.00
2018-03-28T05:10:58.089Z,0.00
2018-03-28T05:11:57.750Z,0.00
2018-03-28T05:12:57.706Z,0.00
2018-03-28T05:13:57.660Z,0.00
2018-03-28T05:14:57.617Z,0.00
2018-03-28T05:15:57.573Z,0.00
2018-03-28T05:16:57.526Z,0.00
2018-03-28T05:17:57.783Z,0.00
2018-03-28T05:18:57.438Z,0.00
2018-03-28T05:19:57.387Z,5.63
2018-03-28T05:20:57.354Z,5.63
2018-03-28T05:21:57.305Z,5.63
2018-03-28T05:22:57.254Z,5.63
2018-03-28T05:23:57.210Z,5.63
2018-03-28T05:24:57.465Z,5.63
2018-03-28T05:25:57.121Z,5.63
2018-03-28T05:26:57.075Z,5.63
2018-03-28T05:27:57.021Z,5.63
2018-03-28T05:28:57.052Z,5.63
2018-03-28T05:29:56.928Z,11.25
2018-03-28T05:30:56.884Z,5.63
2018-03-28T05:31:57.147Z,5.63
2018-03-28T05:32:56.792Z,5.63
2018-03-28T05:33:56.747Z,11.25
2018-03-28T05:34:56.709Z,11.25
2018-03-28T05:35:56.670Z,11.25
2018-03-28T05:36:56.623Z,11.25
2018-03-28T05:37:56.584Z,16.88
2018-03-28T05:38:56.841Z,16.88
2018-03-28T05:39:56.600Z,22.50
2018-03-28T05:40:56.437Z,22.50
2018-03-28T05:41:56.395Z,22.50
2018-03-28T05:42:56.356Z,22.50
2018-03-28T05:43:56.295Z,22.50
2018-03-28T05:44:57.340Z,22.50
2018-03-28T05:45:56.705Z,28.13
2018-03-28T05:46:56.560Z,33.75
2018-03-28T05:47:56.593Z,33.75
2018-03-28T05:48:56.065Z,39.38
2018-03-28T05:49:56.032Z,39.38
2018-03-28T05:50:56.275Z,45.00
2018-03-28T05:51:56.176Z,50.63
2018-03-28T05:52:55.888Z,56.25
2018-03-28T05:53:55.841Z,56.25
2018-03-28T05:54:56.139Z,61.88
2018-03-28T05:55:55.798Z,67.50
2018-03-28T05:56:56.054Z,73.13
2018-03-28T05:57:55.659Z,73.13
2018-03-28T05:58:55.811Z,78.75
2018-03-28T05:59:55.601Z,84.38
2018-03-28T06:00:55.533Z,90.00
2018-03-28T06:01:55.493Z,84.38
2018-03-28T06:02:55.741Z,73.13
2018-03-28T06:03:55.448Z,67.50
2018-03-28T06:04:55.349Z,67.50
2018-03-28T06:05:55.460Z,73.13
2018-03-28T06:06:55.263Z,73.13
2018-03-28T06:07:55.269Z,73.13
2018-03-28T06:08:55.481Z,67.50
2018-03-28T06:09:55.125Z,56.25
2018-03-28T06:10:55.131Z,50.63
2018-03-28T06:11:55.034Z,45.00
2018-03-28T06:12:55.188Z,45.00
2018-03-28T06:13:54.961Z,45.00
2018-03-28T06:14:54.898Z,50.63
2018-03-28T06:15:55.144Z,50.63
2018-03-28T06:16:54.799Z,56.25
2018-03-28T06:17:54.862Z,56.25
2018-03-28T06:18:54.709Z,56.25
2018-03-28T06:19:54.762Z,61.88
2018-03-28T06:20:54.673Z,67.50
2018-03-28T06:21:54.573Z,67.50
2018-03-28T06:22:54.877Z,73.13
2018-03-28T06:23:54.781Z,73.13
2018-03-28T06:24:54.437Z,78.75
2018-03-28T06:25:54.447Z,84.38
2018-03-28T06:26:54.346Z,90.00
2018-03-28T06:27:54.501Z,101.25
2018-03-28T06:28:54.262Z,118.13
2018-03-28T06:29:54.517Z,123.75
2018-03-28T06:30:54.219Z,146.25
2018-03-28T06:31:54.135Z,163.13
2018-03-28T06:32:54.136Z,163.13
2018-03-28T06:33:54.094Z,146.25
2018-03-28T06:34:53.999Z,129.38
2018-03-28T06:35:54.254Z,129.38
2018-03-28T06:36:54.205Z,129.38
2018-03-28T06:37:54.010Z,140.63
2018-03-28T06:38:54.121Z,146.25
2018-03-28T06:39:53.771Z,151.88
2018-03-28T06:40:53.767Z,146.25
2018-03-28T06:41:53.673Z,157.50
2018-03-28T06:42:53.774Z,157.50
2018-03-28T06:43:53.880Z,163.13
2018-03-28T06:44:53.532Z,168.75
2018-03-28T06:45:53.796Z,168.75
2018-03-28T06:46:53.444Z,168.75
2018-03-28T06:47:53.458Z,163.13
2018-03-28T06:49:53.625Z,151.88
2018-03-28T06:50:53.631Z,151.88
2018-03-28T06:51:53.280Z,151.88
2018-03-28T06:52:53.181Z,151.88
2018-03-28T06:53:53.188Z,146.25
2018-03-28T06:54:53.151Z,140.63
2018-03-28T06:55:53.047Z,129.38
2018-03-28T06:56:53.353Z,129.38
2018-03-28T06:57:53.007Z,135.00
2018-03-28T06:58:52.967Z,129.38
2018-03-28T06:59:53.070Z,129.38
2018-03-28T07:00:52.822Z,123.75
2018-03-28T07:01:52.827Z,118.13
2018-03-28T07:02:53.032Z,112.50
2018-03-28T07:03:52.786Z,106.88
2018-03-28T07:04:52.684Z,106.88
2018-03-28T07:05:52.586Z,101.25
2018-03-28T07:06:52.701Z,106.88
2018-03-28T07:07:52.936Z,101.25
2018-03-28T07:08:52.842Z,101.25
2018-03-28T07:09:52.500Z,112.50
2018-03-28T07:10:52.452Z,112.50
2018-03-28T07:11:52.344Z,112.50
2018-03-28T07:12:52.388Z,118.13
2018-03-28T07:13:52.282Z,123.75
2018-03-28T07:14:52.540Z,129.38
2018-03-28T07:15:52.146Z,135.00
2018-03-28T07:16:52.200Z,140.63
2018-03-28T07:17:52.102Z,146.25
2018-03-28T07:18:52.018Z,140.63
2018-03-28T07:19:52.067Z,129.38
2018-03-28T07:20:52.215Z,123.75
2018-03-28T07:21:52.062Z,123.75
2018-03-28T07:22:51.968Z,118.13
2018-03-28T07:23:51.823Z,112.50
2018-03-28T07:24:51.928Z,118.13
2018-03-28T07:25:51.681Z,135.00
2018-03-28T07:26:51.791Z,151.88
2018-03-28T07:27:52.057Z,151.88
2018-03-28T07:28:52.032Z,151.88
2018-03-28T07:29:51.657Z,146.25
2018-03-28T07:30:51.454Z,146.25
2018-03-28T07:31:51.459Z,140.63
2018-03-28T07:32:51.451Z,135.00
2018-03-28T07:33:51.389Z,123.75
2018-03-28T07:34:51.772Z,123.75
2018-03-28T07:35:51.290Z,118.13
2018-03-28T07:36:51.293Z,112.50
2018-03-28T07:37:51.388Z,101.25
2018-03-28T07:38:51.228Z,101.25
2018-03-28T07:39:51.430Z,95.63
2018-03-28T07:40:51.146Z,90.00
2018-03-28T07:41:51.315Z,112.50
2018-03-28T07:42:51.025Z,157.50
2018-03-28T07:43:50.996Z,191.25
2018-03-28T07:44:51.060Z,185.63
2018-03-28T07:45:50.905Z,185.63
2018-03-28T07:46:50.838Z,208.13
2018-03-28T07:47:50.734Z,258.75
2018-03-28T07:48:50.940Z,315.00
2018-03-28T07:49:50.646Z,348.75
2018-03-28T07:50:50.601Z,365.63
2018-03-28T07:51:50.559Z,388.13
2018-03-28T07:52:50.672Z,421.88
2018-03-28T07:53:50.442Z,450.00
2018-03-28T07:54:50.529Z,455.63
2018-03-28T07:55:50.734Z,416.25
2018-03-28T07:56:50.460Z,410.63
2018-03-28T07:57:50.293Z,393.75
2018-03-28T07:58:50.202Z,365.63
2018-03-28T07:59:50.457Z,320.63
2018-03-28T08:00:50.216Z,337.50
2018-03-28T08:01:50.238Z,331.88
2018-03-28T08:02:50.407Z,343.13
2018-03-28T08:03:50.069Z,337.50
2018-03-28T08:04:49.990Z,343.13
2018-03-28T08:05:49.943Z,343.13
2018-03-28T08:06:49.906Z,309.38
2018-03-28T08:07:50.000Z,315.00
2018-03-28T08:08:50.050Z,281.25
2018-03-28T08:09:49.851Z,253.13
2018-03-28T08:10:49.805Z,208.13
2018-03-28T08:11:49.763Z,202.50
2018-03-28T08:12:49.721Z,196.88
2018-03-28T08:13:49.522Z,219.38
2018-03-28T08:14:50.034Z,225.00
2018-03-28T08:15:49.755Z,225.00
2018-03-28T08:16:49.454Z,236.25
2018-03-28T08:17:49.408Z,258.75
2018-03-28T08:18:49.311Z,292.50
2018-03-28T08:19:49.315Z,309.38
2018-03-28T08:20:49.522Z,292.50
2018-03-28T08:21:49.228Z,281.25
2018-03-28T08:22:49.182Z,298.13
2018-03-28T08:23:49.086Z,343.13
2018-03-28T08:24:49.183Z,421.88
2018-03-28T08:25:49.039Z,427.50
2018-03-28T08:26:49.301Z,416.25
2018-03-28T08:27:48.948Z,388.13
2018-03-28T08:28:48.856Z,382.50
2018-03-28T08:29:48.960Z,410.63
2018-03-28T08:30:48.817Z,483.75
2018-03-28T08:31:48.769Z,545.63
2018-03-28T08:32:49.036Z,478.13
2018-03-28T08:33:48.633Z,421.88
2018-03-28T08:34:48.641Z,388.13
2018-03-28T08:35:48.701Z,337.50
2018-03-28T08:36:48.801Z,343.13
2018-03-28T08:37:48.509Z,326.25
2018-03-28T08:38:48.413Z,292.50
2018-03-28T08:39:48.670Z,315.00
2018-03-28T08:40:48.434Z,365.63
2018-03-28T08:41:48.340Z,376.88
2018-03-28T08:42:48.394Z,320.63
2018-03-28T08:43:48.198Z,258.75
2018-03-28T08:44:48.211Z,241.88
2018-03-28T08:45:48.316Z,225.00
2018-03-28T08:46:48.368Z,213.75
2018-03-28T08:47:48.076Z,213.75
2018-03-28T08:48:47.969Z,225.00
2018-03-28T08:49:47.972Z,241.88
2018-03-28T08:50:47.932Z,247.50
2018-03-28T08:51:47.889Z,286.88
2018-03-28T08:52:47.853Z,388.13
2018-03-28T08:53:48.047Z,444.38
2018-03-28T08:54:47.758Z,478.13
2018-03-28T08:55:47.860Z,517.50
2018-03-28T08:56:47.624Z,489.38
2018-03-28T08:57:47.633Z,500.63
2018-03-28T08:58:47.535Z,478.13
2018-03-28T08:59:47.544Z,410.63
2018-03-28T09:00:47.646Z,320.63
2018-03-28T09:01:47.453Z,320.63
2018-03-28T09:02:47.409Z,455.63
2018-03-28T09:03:47.313Z,528.75
2018-03-28T09:04:47.470Z,511.88
2018-03-28T09:05:47.424Z,523.13
2018-03-28T09:06:47.485Z,658.13
2018-03-28T09:07:47.187Z,624.38
2018-03-28T09:08:47.094Z,618.75
2018-03-28T09:09:47.096Z,720.00
2018-03-28T09:10:47.056Z,663.75
2018-03-28T09:11:46.964Z,759.38
2018-03-28T09:12:46.963Z,804.38
2018-03-28T09:13:47.162Z,703.13
2018-03-28T09:14:46.869Z,708.75
2018-03-28T09:15:46.975Z,826.88
2018-03-28T09:16:46.733Z,1085.63
2018-03-28T09:17:46.759Z,1186.88
2018-03-28T09:18:46.644Z,1265.63
2018-03-28T09:19:46.904Z,1485.00
2018-03-28T09:20:46.620Z,1636.88
2018-03-28T09:21:46.525Z,1963.13
2018-03-28T09:22:46.687Z,2115.00
2018-03-28T09:23:46.439Z,1541.25
2018-03-28T09:24:46.447Z,1620.00
2018-03-28T09:25:46.861Z,1957.50
2018-03-28T09:26:46.397Z,2334.38
2018-03-28T09:27:46.341Z,2812.50
2018-03-28T09:28:46.268Z,2975.63
2018-03-28T09:29:46.277Z,2773.13
2018-03-28T09:30:46.335Z,1693.13
2018-03-28T09:31:46.396Z,2677.50
2018-03-28T09:32:46.106Z,2075.63
2018-03-28T09:33:46.069Z,1383.75
2018-03-28T09:34:46.025Z,1181.25
2018-03-28T09:35:46.085Z,1350.00
2018-03-28T09:36:45.892Z,1957.50
2018-03-28T09:37:46.254Z,1096.88
2018-03-28T09:38:45.965Z,1288.13
2018-03-28T09:39:45.828Z,1951.88
2018-03-28T09:40:46.040Z,1575.00
2018-03-28T09:41:45.697Z,1558.13
2018-03-28T09:42:45.704Z,1147.50
2018-03-28T09:43:45.966Z,984.38
2018-03-28T09:44:45.789Z,995.63
2018-03-28T09:45:45.604Z,860.63
2018-03-28T09:46:45.508Z,855.00
2018-03-28T09:47:45.516Z,826.88
2018-03-28T09:48:45.475Z,832.50
2018-03-28T09:49:45.432Z,855.00
2018-03-28T09:50:45.694Z,770.63
2018-03-28T09:51:45.306Z,691.88
2018-03-28T09:52:45.552Z,742.50
2018-03-28T09:53:45.261Z,736.88
2018-03-28T09:54:45.319Z,618.75
2018-03-28T09:55:45.178Z,540.00
2018-03-28T09:56:45.088Z,483.75
2018-03-28T09:57:45.454Z,421.88
2018-03-28T09:58:45.410Z,416.25
2018-03-28T09:59:45.013Z,444.38
2018-03-28T10:00:44.981Z,444.38
2018-03-28T10:01:44.891Z,438.75
2018-03-28T10:02:45.054Z,427.50
2018-03-28T10:03:44.959Z,427.50
2018-03-28T10:04:45.115Z,433.13
2018-03-28T10:05:44.772Z,410.63
2018-03-28T10:06:44.680Z,343.13
2018-03-28T10:07:44.690Z,270.00
2018-03-28T10:08:44.748Z,225.00
2018-03-28T10:09:44.603Z,230.63
2018-03-28T10:10:44.664Z,303.75
2018-03-28T10:11:44.767Z,410.63
2018-03-28T10:12:44.741Z,472.50
2018-03-28T10:13:44.434Z,506.25
2018-03-28T10:14:44.392Z,545.63
2018-03-28T10:15:44.391Z,562.50
2018-03-28T10:16:44.244Z,568.13
2018-03-28T10:17:44.250Z,562.50
2018-03-28T10:18:44.459Z,562.50
2018-03-28T10:19:44.118Z,568.13
2018-03-28T10:20:44.122Z,590.63
2018-03-28T10:21:44.029Z,618.75
2018-03-28T10:22:44.036Z,646.88
2018-03-28T10:23:43.996Z,658.13
2018-03-28T10:24:44.110Z,658.13
2018-03-28T10:25:44.225Z,697.50
2018-03-28T10:26:43.826Z,759.38
2018-03-28T10:27:43.832Z,798.75
2018-03-28T10:28:43.796Z,826.88
2018-03-28T10:29:43.747Z,838.13
2018-03-28T10:30:43.955Z,866.25
2018-03-28T10:31:43.913Z,939.38
2018-03-28T10:32:43.665Z,984.38
2018-03-28T10:33:43.579Z,990.00
2018-03-28T10:34:43.475Z,961.88
2018-03-28T10:35:43.485Z,967.50
2018-03-28T10:36:43.392Z,1001.25
2018-03-28T10:37:43.699Z,1023.75
2018-03-28T10:38:43.519Z,1029.38
2018-03-28T10:39:43.264Z,1400.63
2018-03-28T10:40:43.274Z,1389.38
2018-03-28T10:41:43.180Z,1400.63
2018-03-28T10:42:43.342Z,1513.13
2018-03-28T10:43:43.455Z,1788.75
2018-03-28T10:44:43.064Z,1383.75
2018-03-28T10:45:43.064Z,1282.50
2018-03-28T10:46:43.022Z,1113.75
2018-03-28T10:47:42.979Z,995.63
2018-03-28T10:48:42.966Z,1164.38
2018-03-28T10:49:43.312Z,1029.38
2018-03-28T10:50:42.973Z,928.13
2018-03-28T10:51:42.826Z,871.88
2018-03-28T10:52:42.792Z,838.13
2018-03-28T10:53:42.796Z,793.13
2018-03-28T10:54:42.653Z,826.88
2018-03-28T10:55:42.967Z,916.88
2018-03-28T10:56:42.612Z,922.50
2018-03-28T10:57:42.570Z,961.88
2018-03-28T10:58:42.679Z,990.00
2018-03-28T10:59:42.439Z,1012.50
2018-03-28T11:00:42.453Z,1035.00
2018-03-28T11:01:42.405Z,1035.00
2018-03-28T11:02:42.718Z,1029.38
2018-03-28T11:03:42.325Z,1080.00
2018-03-28T11:04:42.248Z,1085.63
2018-03-28T11:05:42.303Z,1136.25
2018-03-28T11:06:42.215Z,1181.25
2018-03-28T11:07:42.295Z,1068.75
2018-03-28T11:08:42.240Z,961.88
2018-03-28T11:09:42.343Z,883.13
2018-03-28T11:10:42.056Z,871.88
2018-03-28T11:11:42.008Z,973.13
2018-03-28T11:12:41.976Z,1080.00
2018-03-28T11:13:41.924Z,1108.13
2018-03-28T11:14:41.835Z,1080.00
2018-03-28T11:15:41.842Z,1040.63
2018-03-28T11:16:42.101Z,1051.88
2018-03-28T11:17:41.870Z,1113.75
2018-03-28T11:18:41.723Z,1186.88
2018-03-28T11:19:41.699Z,1203.75
2018-03-28T11:20:41.626Z,1198.13
2018-03-28T11:21:41.737Z,1198.13
2018-03-28T11:22:41.706Z,1198.13
2018-03-28T11:23:41.803Z,1164.38
2018-03-28T11:24:41.419Z,1170.00
2018-03-28T11:25:41.522Z,1181.25
2018-03-28T11:26:41.537Z,1170.00
2018-03-28T11:27:41.341Z,1119.38
2018-03-28T11:28:41.414Z,1080.00
2018-03-28T11:29:41.224Z,1096.88
2018-03-28T11:30:41.482Z,1119.38
2018-03-28T11:31:41.195Z,1085.63
2018-03-28T11:32:41.195Z,1012.50
2018-03-28T11:33:41.206Z,961.88
2018-03-28T11:34:41.015Z,956.25
2018-03-28T11:35:41.031Z,978.75
2018-03-28T11:36:40.973Z,956.25
2018-03-28T11:37:41.233Z,911.25
2018-03-28T11:38:40.902Z,843.75
2018-03-28T11:39:40.804Z,781.88
2018-03-28T11:40:40.816Z,770.63
2018-03-28T11:41:40.771Z,810.00
2018-03-28T11:42:40.733Z,843.75
2018-03-28T11:43:41.092Z,838.13
2018-03-28T11:44:40.650Z,838.13
2018-03-28T11:45:40.614Z,838.13
2018-03-28T11:46:40.568Z,826.88
2018-03-28T11:47:40.706Z,815.63
2018-03-28T11:48:40.584Z,804.38
2018-03-28T11:49:40.691Z,787.50
2018-03-28T11:50:40.399Z,781.88
2018-03-28T11:51:40.361Z,776.25
2018-03-28T11:52:40.327Z,765.00
2018-03-28T11:53:40.386Z,765.00
2018-03-28T11:54:40.247Z,759.38
2018-03-28T11:55:40.606Z,753.75
2018-03-28T11:56:40.262Z,742.50
2018-03-28T11:57:40.172Z,736.88
2018-03-28T11:58:40.084Z,725.63
2018-03-28T11:59:39.988Z,720.00
2018-03-28T12:00:39.988Z,708.75
2018-03-28T12:01:40.297Z,697.50
2018-03-28T12:02:39.921Z,686.25
2018-03-28T12:03:39.861Z,669.38
2018-03-28T12:04:39.826Z,663.75
2018-03-28T12:05:39.977Z,663.75
2018-03-28T12:06:39.887Z,658.13
2018-03-28T12:07:39.994Z,635.63
2018-03-28T12:08:39.662Z,618.75
2018-03-28T12:09:39.578Z,613.13
2018-03-28T12:10:39.740Z,585.00
2018-03-28T12:11:39.638Z,568.13
2018-03-28T12:12:39.500Z,528.75
2018-03-28T12:13:39.454Z,506.25
2018-03-28T12:14:39.667Z,506.25
2018-03-28T12:15:39.415Z,534.38
2018-03-28T12:16:39.339Z,573.75
2018-03-28T12:17:39.291Z,596.25
2018-03-28T12:18:39.249Z,601.88
2018-03-28T12:19:39.156Z,607.50
2018-03-28T12:20:39.313Z,601.88
2018-03-28T12:21:39.519Z,590.63
2018-03-28T12:22:39.082Z,585.00
2018-03-28T12:23:39.037Z,601.88
2018-03-28T12:24:38.932Z,613.13
2018-03-28T12:25:39.050Z,624.38
2018-03-28T12:26:39.157Z,624.38
2018-03-28T12:27:39.006Z,624.38
2018-03-28T12:28:39.111Z,630.00
2018-03-28T12:29:38.722Z,635.63
2018-03-28T12:30:38.729Z,641.25
2018-03-28T12:31:38.688Z,641.25
2018-03-28T12:32:38.603Z,635.63
2018-03-28T12:33:38.716Z,630.00
2018-03-28T12:34:38.526Z,624.38
2018-03-28T12:35:38.831Z,618.75
2018-03-28T12:36:38.489Z,618.75
2018-03-28T12:37:38.393Z,630.00
2018-03-28T12:38:38.401Z,635.63
2018-03-28T12:39:38.307Z,652.50
2018-03-28T12:40:38.308Z,658.13
2018-03-28T12:41:38.281Z,658.13
2018-03-28T12:42:38.481Z,658.13
2018-03-28T12:43:38.283Z,646.88
2018-03-28T12:44:38.145Z,635.63
2018-03-28T12:45:38.099Z,624.38
2018-03-28T12:46:38.157Z,607.50
2018-03-28T12:47:37.963Z,590.63
2018-03-28T12:48:38.068Z,579.38